sensor_id;sensor_type;location;lat;lon;timestamp;P1;durP1;ratioP1;P2;durP2;ratioP2
19739;SDS011;10027;51.066;13.768;2023-05-21T00:00:15;20.47;;;13.20;;
19739;SDS011;10027;51.066;13.768;2023-05-21T00:02:42;20.57;;;13.03;;
19739;SDS011;10027;51.066;13.768;2023-05-21T00:05:09;19.97;;;13.20;;
19739;SDS011;10027;51.066;13.768;2023-05-21T00:07:40;18.93;;;13.10;;
19739;SDS011;10027;51.066;13.768;2023-05-21T00:10:07;18.57;;;13.03;;
19739;SDS011;10027;51.066;13.768;2023-05-21T00:12:34;16.27;;;11.90;;
19739;SDS011;10027;51.066;13.768;2023-05-21T00:15:02;18.67;;;12.87;;
19739;SDS011;10027;51.066;13.768;2023-05-21T00:17:30;19.07;;;13.50;;
19739;SDS011;10027;51.066;13.768;2023-05-21T00:19:57;19.70;;;13.27;;
19739;SDS011;10027;51.066;13.768;2023-05-21T00:22:25;20.33;;;13.33;;
19739;SDS011;10027;51.066;13.768;2023-05-21T00:24:52;27.37;;;13.80;;
19739;SDS011;10027;51.066;13.768;2023-05-21T00:27:19;22.60;;;13.63;;
19739;SDS011;10027;51.066;13.768;2023-05-21T00:29:46;19.70;;;13.33;;
19739;SDS011;10027;51.066;13.768;2023-05-21T00:32:14;19.43;;;13.93;;
19739;SDS011;10027;51.066;13.768;2023-05-21T00:34:41;19.60;;;13.20;;
19739;SDS011;10027;51.066;13.768;2023-05-21T00:37:09;18.43;;;13.33;;
19739;SDS011;10027;51.066;13.768;2023-05-21T00:39:36;18.80;;;12.83;;
19739;SDS011;10027;51.066;13.768;2023-05-21T00:42:03;22.13;;;12.83;;
19739;SDS011;10027;51.066;13.768;2023-05-21T00:44:31;18.33;;;13.13;;
19739;SDS011;10027;51.066;13.768;2023-05-21T00:47:02;18.73;;;13.17;;
19739;SDS011;10027;51.066;13.768;2023-05-21T00:49:29;18.93;;;12.60;;
19739;SDS011;10027;51.066;13.768;2023-05-21T00:51:57;20.53;;;13.53;;
19739;SDS011;10027;51.066;13.768;2023-05-21T00:54:26;18.93;;;13.00;;
19739;SDS011;10027;51.066;13.768;2023-05-21T00:56:53;18.83;;;12.53;;
19739;SDS011;10027;51.066;13.768;2023-05-21T00:59:21;17.73;;;12.50;;
19739;SDS011;10027;51.066;13.768;2023-05-21T01:01:49;18.33;;;12.83;;
19739;SDS011;10027;51.066;13.768;2023-05-21T01:04:22;17.70;;;12.13;;
19739;SDS011;10027;51.066;13.768;2023-05-21T01:06:49;17.23;;;12.93;;
19739;SDS011;10027;51.066;13.768;2023-05-21T01:09:18;20.27;;;12.47;;
19739;SDS011;10027;51.066;13.768;2023-05-21T01:11:46;19.53;;;12.70;;
19739;SDS011;10027;51.066;13.768;2023-05-21T01:14:14;17.00;;;12.40;;
19739;SDS011;10027;51.066;13.768;2023-05-21T01:16:42;20.27;;;12.43;;
19739;SDS011;10027;51.066;13.768;2023-05-21T01:19:14;18.80;;;12.70;;
19739;SDS011;10027;51.066;13.768;2023-05-21T01:21:48;21.57;;;13.03;;
19739;SDS011;10027;51.066;13.768;2023-05-21T01:24:16;18.77;;;12.87;;
19739;SDS011;10027;51.066;13.768;2023-05-21T01:26:43;18.30;;;12.67;;
19739;SDS011;10027;51.066;13.768;2023-05-21T01:29:12;19.20;;;12.73;;
19739;SDS011;10027;51.066;13.768;2023-05-21T01:34:29;18.07;;;12.43;;
19739;SDS011;10027;51.066;13.768;2023-05-21T01:37:01;17.63;;;12.67;;
19739;SDS011;10027;51.066;13.768;2023-05-21T01:39:31;21.40;;;12.53;;
19739;SDS011;10027;51.066;13.768;2023-05-21T01:42:00;18.43;;;12.60;;
19739;SDS011;10027;51.066;13.768;2023-05-21T01:44:29;18.73;;;13.17;;
19739;SDS011;10027;51.066;13.768;2023-05-21T01:46:56;18.27;;;12.73;;
19739;SDS011;10027;51.066;13.768;2023-05-21T01:49:25;21.23;;;13.20;;
19739;SDS011;10027;51.066;13.768;2023-05-21T01:51:52;23.50;;;13.10;;
19739;SDS011;10027;51.066;13.768;2023-05-21T01:54:19;20.63;;;12.80;;
19739;SDS011;10027;51.066;13.768;2023-05-21T01:56:47;18.87;;;13.37;;
19739;SDS011;10027;51.066;13.768;2023-05-21T01:59:15;21.33;;;13.60;;
19739;SDS011;10027;51.066;13.768;2023-05-21T02:01:43;20.50;;;12.87;;
19739;SDS011;10027;51.066;13.768;2023-05-21T02:04:10;19.50;;;12.47;;
19739;SDS011;10027;51.066;13.768;2023-05-21T02:06:37;21.33;;;13.33;;
19739;SDS011;10027;51.066;13.768;2023-05-21T02:09:06;20.80;;;12.60;;
19739;SDS011;10027;51.066;13.768;2023-05-21T02:11:33;21.87;;;12.73;;
19739;SDS011;10027;51.066;13.768;2023-05-21T02:14:01;17.90;;;12.73;;
19739;SDS011;10027;51.066;13.768;2023-05-21T02:16:28;19.87;;;12.73;;
19739;SDS011;10027;51.066;13.768;2023-05-21T02:18:56;18.83;;;12.30;;
19739;SDS011;10027;51.066;13.768;2023-05-21T02:21:25;21.80;;;13.07;;
19739;SDS011;10027;51.066;13.768;2023-05-21T02:23:53;18.87;;;12.60;;
19739;SDS011;10027;51.066;13.768;2023-05-21T02:26:20;19.93;;;12.80;;
19739;SDS011;10027;51.066;13.768;2023-05-21T02:28:47;20.93;;;12.57;;
19739;SDS011;10027;51.066;13.768;2023-05-21T02:31:15;17.30;;;11.83;;
19739;SDS011;10027;51.066;13.768;2023-05-21T02:33:42;16.97;;;12.50;;
19739;SDS011;10027;51.066;13.768;2023-05-21T02:36:09;20.50;;;12.53;;
19739;SDS011;10027;51.066;13.768;2023-05-21T02:38:38;18.93;;;13.23;;
19739;SDS011;10027;51.066;13.768;2023-05-21T02:41:09;18.83;;;12.03;;
19739;SDS011;10027;51.066;13.768;2023-05-21T02:43:37;17.17;;;12.30;;
19739;SDS011;10027;51.066;13.768;2023-05-21T02:46:04;20.00;;;12.30;;
19739;SDS011;10027;51.066;13.768;2023-05-21T02:48:32;21.20;;;12.70;;
19739;SDS011;10027;51.066;13.768;2023-05-21T02:50:59;21.00;;;12.83;;
19739;SDS011;10027;51.066;13.768;2023-05-21T02:53:27;19.50;;;11.93;;
19739;SDS011;10027;51.066;13.768;2023-05-21T02:55:54;22.97;;;12.37;;
19739;SDS011;10027;51.066;13.768;2023-05-21T02:58:21;21.00;;;13.13;;
19739;SDS011;10027;51.066;13.768;2023-05-21T03:00:50;19.17;;;12.27;;
19739;SDS011;10027;51.066;13.768;2023-05-21T03:03:19;18.00;;;12.67;;
19739;SDS011;10027;51.066;13.768;2023-05-21T03:05:46;17.83;;;12.80;;
19739;SDS011;10027;51.066;13.768;2023-05-21T03:08:13;19.03;;;12.77;;
19739;SDS011;10027;51.066;13.768;2023-05-21T03:10:40;18.00;;;12.77;;
19739;SDS011;10027;51.066;13.768;2023-05-21T03:13:08;22.27;;;12.10;;
19739;SDS011;10027;51.066;13.768;2023-05-21T03:15:35;21.50;;;13.17;;
19739;SDS011;10027;51.066;13.768;2023-05-21T03:18:04;17.73;;;12.43;;
19739;SDS011;10027;51.066;13.768;2023-05-21T03:20:32;19.37;;;12.47;;
19739;SDS011;10027;51.066;13.768;2023-05-21T03:22:59;18.30;;;12.10;;
19739;SDS011;10027;51.066;13.768;2023-05-21T03:25:29;18.53;;;12.53;;
19739;SDS011;10027;51.066;13.768;2023-05-21T03:27:56;18.17;;;12.00;;
19739;SDS011;10027;51.066;13.768;2023-05-21T03:30:24;19.27;;;13.03;;
19739;SDS011;10027;51.066;13.768;2023-05-21T03:32:51;17.47;;;12.13;;
19739;SDS011;10027;51.066;13.768;2023-05-21T03:35:18;18.37;;;12.53;;
19739;SDS011;10027;51.066;13.768;2023-05-21T03:37:46;17.60;;;12.73;;
19739;SDS011;10027;51.066;13.768;2023-05-21T03:40:13;18.80;;;12.60;;
19739;SDS011;10027;51.066;13.768;2023-05-21T03:42:40;17.43;;;12.13;;
19739;SDS011;10027;51.066;13.768;2023-05-21T03:45:07;19.40;;;12.87;;
19739;SDS011;10027;51.066;13.768;2023-05-21T03:47:35;18.13;;;12.90;;
19739;SDS011;10027;51.066;13.768;2023-05-21T03:50:02;19.30;;;12.63;;
19739;SDS011;10027;51.066;13.768;2023-05-21T03:52:30;16.80;;;11.90;;
19739;SDS011;10027;51.066;13.768;2023-05-21T03:54:57;20.10;;;12.77;;
19739;SDS011;10027;51.066;13.768;2023-05-21T03:57:25;18.63;;;12.67;;
19739;SDS011;10027;51.066;13.768;2023-05-21T03:59:52;17.47;;;13.20;;
19739;SDS011;10027;51.066;13.768;2023-05-21T04:02:20;23.30;;;13.27;;
19739;SDS011;10027;51.066;13.768;2023-05-21T04:04:48;19.67;;;13.63;;
19739;SDS011;10027;51.066;13.768;2023-05-21T04:07:16;18.17;;;12.57;;
19739;SDS011;10027;51.066;13.768;2023-05-21T04:09:44;16.90;;;12.33;;
19739;SDS011;10027;51.066;13.768;2023-05-21T04:12:12;18.80;;;13.13;;
19739;SDS011;10027;51.066;13.768;2023-05-21T04:14:39;19.37;;;13.33;;
19739;SDS011;10027;51.066;13.768;2023-05-21T04:17:07;23.17;;;13.07;;
19739;SDS011;10027;51.066;13.768;2023-05-21T04:19:34;22.30;;;13.37;;
19739;SDS011;10027;51.066;13.768;2023-05-21T04:22:01;18.87;;;13.00;;
19739;SDS011;10027;51.066;13.768;2023-05-21T04:24:28;20.03;;;13.57;;
19739;SDS011;10027;51.066;13.768;2023-05-21T04:26:56;21.43;;;13.27;;
19739;SDS011;10027;51.066;13.768;2023-05-21T04:29:26;17.20;;;12.60;;
19739;SDS011;10027;51.066;13.768;2023-05-21T04:31:55;19.83;;;13.00;;
19739;SDS011;10027;51.066;13.768;2023-05-21T04:34:22;18.50;;;13.07;;
19739;SDS011;10027;51.066;13.768;2023-05-21T04:36:49;21.30;;;13.83;;
19739;SDS011;10027;51.066;13.768;2023-05-21T04:39:17;21.60;;;13.77;;
19739;SDS011;10027;51.066;13.768;2023-05-21T04:41:44;19.97;;;13.20;;
19739;SDS011;10027;51.066;13.768;2023-05-21T04:44:11;21.80;;;13.27;;
19739;SDS011;10027;51.066;13.768;2023-05-21T04:46:40;23.70;;;13.53;;
19739;SDS011;10027;51.066;13.768;2023-05-21T04:49:09;19.67;;;13.10;;
19739;SDS011;10027;51.066;13.768;2023-05-21T04:51:36;18.07;;;12.80;;
19739;SDS011;10027;51.066;13.768;2023-05-21T04:54:03;22.00;;;13.63;;
19739;SDS011;10027;51.066;13.768;2023-05-21T04:56:31;21.70;;;13.70;;
19739;SDS011;10027;51.066;13.768;2023-05-21T04:58:58;20.27;;;14.00;;
19739;SDS011;10027;51.066;13.768;2023-05-21T05:01:25;22.50;;;14.27;;
19739;SDS011;10027;51.066;13.768;2023-05-21T05:03:54;20.57;;;13.37;;
19739;SDS011;10027;51.066;13.768;2023-05-21T05:06:21;24.93;;;13.13;;
19739;SDS011;10027;51.066;13.768;2023-05-21T05:08:51;19.20;;;13.07;;
19739;SDS011;10027;51.066;13.768;2023-05-21T05:11:18;20.00;;;13.27;;
19739;SDS011;10027;51.066;13.768;2023-05-21T05:13:45;19.70;;;13.73;;
19739;SDS011;10027;51.066;13.768;2023-05-21T05:16:13;18.93;;;13.30;;
19739;SDS011;10027;51.066;13.768;2023-05-21T05:18:43;19.47;;;13.40;;
19739;SDS011;10027;51.066;13.768;2023-05-21T05:21:10;21.80;;;13.90;;
19739;SDS011;10027;51.066;13.768;2023-05-21T05:23:37;20.10;;;13.33;;
19739;SDS011;10027;51.066;13.768;2023-05-21T05:26:04;19.87;;;12.87;;
19739;SDS011;10027;51.066;13.768;2023-05-21T05:28:31;20.07;;;13.53;;
19739;SDS011;10027;51.066;13.768;2023-05-21T05:30:58;17.33;;;12.87;;
19739;SDS011;10027;51.066;13.768;2023-05-21T05:33:26;17.73;;;12.27;;
19739;SDS011;10027;51.066;13.768;2023-05-21T05:35:53;17.20;;;12.27;;
19739;SDS011;10027;51.066;13.768;2023-05-21T05:38:20;16.20;;;12.33;;
19739;SDS011;10027;51.066;13.768;2023-05-21T05:40:47;17.33;;;13.17;;
19739;SDS011;10027;51.066;13.768;2023-05-21T05:43:15;16.03;;;12.17;;
19739;SDS011;10027;51.066;13.768;2023-05-21T05:45:42;16.37;;;12.60;;
19739;SDS011;10027;51.066;13.768;2023-05-21T05:48:09;17.07;;;12.50;;
19739;SDS011;10027;51.066;13.768;2023-05-21T05:50:37;15.47;;;12.43;;
19739;SDS011;10027;51.066;13.768;2023-05-21T05:53:04;17.33;;;12.40;;
19739;SDS011;10027;51.066;13.768;2023-05-21T05:55:32;17.27;;;12.77;;
19739;SDS011;10027;51.066;13.768;2023-05-21T05:58:00;17.60;;;12.90;;
19739;SDS011;10027;51.066;13.768;2023-05-21T06:00:27;17.13;;;12.93;;
19739;SDS011;10027;51.066;13.768;2023-05-21T06:02:54;15.80;;;12.07;;
19739;SDS011;10027;51.066;13.768;2023-05-21T06:05:21;17.90;;;12.27;;
19739;SDS011;10027;51.066;13.768;2023-05-21T06:07:49;16.50;;;12.43;;
19739;SDS011;10027;51.066;13.768;2023-05-21T06:10:16;15.70;;;12.13;;
19739;SDS011;10027;51.066;13.768;2023-05-21T06:12:45;15.67;;;11.97;;
19739;SDS011;10027;51.066;13.768;2023-05-21T06:15:13;19.23;;;12.63;;
19739;SDS011;10027;51.066;13.768;2023-05-21T06:17:40;17.97;;;12.43;;
19739;SDS011;10027;51.066;13.768;2023-05-21T06:20:07;15.33;;;12.20;;
19739;SDS011;10027;51.066;13.768;2023-05-21T06:22:35;16.17;;;12.20;;
19739;SDS011;10027;51.066;13.768;2023-05-21T06:25:02;15.87;;;11.93;;
19739;SDS011;10027;51.066;13.768;2023-05-21T06:27:29;15.27;;;11.80;;
19739;SDS011;10027;51.066;13.768;2023-05-21T06:29:57;15.93;;;11.80;;
19739;SDS011;10027;51.066;13.768;2023-05-21T06:32:24;15.80;;;12.47;;
19739;SDS011;10027;51.066;13.768;2023-05-21T06:34:51;14.97;;;11.17;;
19739;SDS011;10027;51.066;13.768;2023-05-21T06:37:19;15.20;;;11.37;;
19739;SDS011;10027;51.066;13.768;2023-05-21T06:39:47;15.33;;;11.30;;
19739;SDS011;10027;51.066;13.768;2023-05-21T06:42:14;15.03;;;11.67;;
19739;SDS011;10027;51.066;13.768;2023-05-21T06:44:41;13.20;;;11.33;;
19739;SDS011;10027;51.066;13.768;2023-05-21T06:47:08;17.17;;;10.97;;
19739;SDS011;10027;51.066;13.768;2023-05-21T06:49:35;14.30;;;10.90;;
19739;SDS011;10027;51.066;13.768;2023-05-21T06:52:03;13.93;;;11.47;;
19739;SDS011;10027;51.066;13.768;2023-05-21T06:54:30;13.87;;;11.27;;
19739;SDS011;10027;51.066;13.768;2023-05-21T06:56:57;16.40;;;11.40;;
19739;SDS011;10027;51.066;13.768;2023-05-21T06:59:25;14.40;;;11.70;;
19739;SDS011;10027;51.066;13.768;2023-05-21T07:01:52;12.10;;;10.40;;
19739;SDS011;10027;51.066;13.768;2023-05-21T07:04:19;13.83;;;11.20;;
19739;SDS011;10027;51.066;13.768;2023-05-21T07:06:46;17.90;;;11.33;;
19739;SDS011;10027;51.066;13.768;2023-05-21T07:09:13;15.40;;;11.30;;
19739;SDS011;10027;51.066;13.768;2023-05-21T07:11:41;13.43;;;11.47;;
19739;SDS011;10027;51.066;13.768;2023-05-21T07:14:08;15.13;;;10.77;;
19739;SDS011;10027;51.066;13.768;2023-05-21T07:16:35;14.33;;;11.13;;
19739;SDS011;10027;51.066;13.768;2023-05-21T07:19:03;13.70;;;11.40;;
19739;SDS011;10027;51.066;13.768;2023-05-21T07:21:30;13.73;;;10.80;;
19739;SDS011;10027;51.066;13.768;2023-05-21T07:23:57;13.67;;;10.90;;
19739;SDS011;10027;51.066;13.768;2023-05-21T07:26:24;12.97;;;10.73;;
19739;SDS011;10027;51.066;13.768;2023-05-21T07:28:51;12.37;;;10.80;;
19739;SDS011;10027;51.066;13.768;2023-05-21T07:31:18;13.27;;;10.90;;
19739;SDS011;10027;51.066;13.768;2023-05-21T07:33:45;14.37;;;11.13;;
19739;SDS011;10027;51.066;13.768;2023-05-21T07:36:13;12.93;;;10.53;;
19739;SDS011;10027;51.066;13.768;2023-05-21T07:38:40;16.30;;;10.70;;
19739;SDS011;10027;51.066;13.768;2023-05-21T07:41:07;15.53;;;10.53;;
19739;SDS011;10027;51.066;13.768;2023-05-21T07:43:34;13.83;;;10.53;;
19739;SDS011;10027;51.066;13.768;2023-05-21T07:46:02;12.97;;;10.93;;
19739;SDS011;10027;51.066;13.768;2023-05-21T07:48:29;14.80;;;10.57;;
19739;SDS011;10027;51.066;13.768;2023-05-21T07:50:59;12.33;;;10.60;;
19739;SDS011;10027;51.066;13.768;2023-05-21T07:53:26;13.43;;;10.60;;
19739;SDS011;10027;51.066;13.768;2023-05-21T07:55:58;15.87;;;11.37;;
19739;SDS011;10027;51.066;13.768;2023-05-21T07:58:25;13.53;;;10.17;;
19739;SDS011;10027;51.066;13.768;2023-05-21T08:00:52;12.73;;;10.63;;
19739;SDS011;10027;51.066;13.768;2023-05-21T08:03:20;12.67;;;10.70;;
19739;SDS011;10027;51.066;13.768;2023-05-21T08:05:48;12.33;;;10.20;;
19739;SDS011;10027;51.066;13.768;2023-05-21T08:08:16;13.37;;;10.17;;
19739;SDS011;10027;51.066;13.768;2023-05-21T08:10:44;11.37;;;10.20;;
19739;SDS011;10027;51.066;13.768;2023-05-21T08:13:11;13.17;;;10.47;;
19739;SDS011;10027;51.066;13.768;2023-05-21T08:15:38;11.87;;;10.67;;
19739;SDS011;10027;51.066;13.768;2023-05-21T08:18:06;12.00;;;10.60;;
19739;SDS011;10027;51.066;13.768;2023-05-21T08:20:34;11.90;;;10.70;;
19739;SDS011;10027;51.066;13.768;2023-05-21T08:23:01;11.80;;;10.57;;
19739;SDS011;10027;51.066;13.768;2023-05-21T08:25:29;13.57;;;10.80;;
19739;SDS011;10027;51.066;13.768;2023-05-21T08:27:56;13.00;;;10.63;;
19739;SDS011;10027;51.066;13.768;2023-05-21T08:30:23;11.82;;;10.52;;
19739;SDS011;10027;51.066;13.768;2023-05-21T08:32:51;12.52;;;10.18;;
19739;SDS011;10027;51.066;13.768;2023-05-21T08:35:18;11.80;;;10.25;;
19739;SDS011;10027;51.066;13.768;2023-05-21T08:37:45;10.73;;;9.73;;
19739;SDS011;10027;51.066;13.768;2023-05-21T08:40:12;11.20;;;9.98;;
19739;SDS011;10027;51.066;13.768;2023-05-21T08:42:49;11.45;;;10.27;;
19739;SDS011;10027;51.066;13.768;2023-05-21T08:45:21;11.40;;;10.30;;
19739;SDS011;10027;51.066;13.768;2023-05-21T08:47:55;11.30;;;10.20;;
19739;SDS011;10027;51.066;13.768;2023-05-21T08:50:25;10.90;;;9.85;;
19739;SDS011;10027;51.066;13.768;2023-05-21T08:52:52;11.27;;;10.13;;
19739;SDS011;10027;51.066;13.768;2023-05-21T08:55:20;11.65;;;9.77;;
19739;SDS011;10027;51.066;13.768;2023-05-21T08:57:48;11.55;;;10.02;;
19739;SDS011;10027;51.066;13.768;2023-05-21T09:00:16;13.13;;;9.63;;
19739;SDS011;10027;51.066;13.768;2023-05-21T09:02:45;10.90;;;9.80;;
19739;SDS011;10027;51.066;13.768;2023-05-21T09:05:13;12.07;;;10.23;;
19739;SDS011;10027;51.066;13.768;2023-05-21T09:07:46;11.37;;;10.17;;
19739;SDS011;10027;51.066;13.768;2023-05-21T09:10:17;10.87;;;9.53;;
19739;SDS011;10027;51.066;13.768;2023-05-21T09:12:46;11.90;;;9.77;;
19739;SDS011;10027;51.066;13.768;2023-05-21T09:15:14;10.83;;;9.73;;
19739;SDS011;10027;51.066;13.768;2023-05-21T09:17:41;11.87;;;10.00;;
19739;SDS011;10027;51.066;13.768;2023-05-21T09:22:40;12.77;;;10.20;;
19739;SDS011;10027;51.066;13.768;2023-05-21T09:25:12;11.07;;;9.83;;
19739;SDS011;10027;51.066;13.768;2023-05-21T09:27:39;10.50;;;9.23;;
19739;SDS011;10027;51.066;13.768;2023-05-21T09:30:16;15.07;;;9.40;;
19739;SDS011;10027;51.066;13.768;2023-05-21T09:32:55;10.60;;;9.50;;
19739;SDS011;10027;51.066;13.768;2023-05-21T09:35:23;11.60;;;9.80;;
19739;SDS011;10027;51.066;13.768;2023-05-21T09:37:51;11.10;;;9.43;;
19739;SDS011;10027;51.066;13.768;2023-05-21T09:40:19;11.03;;;9.93;;
19739;SDS011;10027;51.066;13.768;2023-05-21T09:42:47;11.43;;;9.70;;
19739;SDS011;10027;51.066;13.768;2023-05-21T09:45:18;11.93;;;9.30;;
19739;SDS011;10027;51.066;13.768;2023-05-21T09:47:46;11.37;;;10.13;;
19739;SDS011;10027;51.066;13.768;2023-05-21T09:50:16;12.17;;;9.93;;
19739;SDS011;10027;51.066;13.768;2023-05-21T09:52:44;10.90;;;9.50;;
19739;SDS011;10027;51.066;13.768;2023-05-21T09:55:12;11.73;;;9.47;;
19739;SDS011;10027;51.066;13.768;2023-05-21T09:57:39;13.57;;;9.57;;
19739;SDS011;10027;51.066;13.768;2023-05-21T10:00:08;10.23;;;9.07;;
19739;SDS011;10027;51.066;13.768;2023-05-21T10:02:43;13.47;;;9.73;;
19739;SDS011;10027;51.066;13.768;2023-05-21T10:05:12;10.70;;;9.60;;
19739;SDS011;10027;51.066;13.768;2023-05-21T10:07:40;10.07;;;9.03;;
19739;SDS011;10027;51.066;13.768;2023-05-21T10:10:08;10.20;;;9.20;;
19739;SDS011;10027;51.066;13.768;2023-05-21T10:12:37;10.07;;;8.93;;
19739;SDS011;10027;51.066;13.768;2023-05-21T10:15:07;10.10;;;9.10;;
19739;SDS011;10027;51.066;13.768;2023-05-21T10:17:35;10.47;;;9.47;;
19739;SDS011;10027;51.066;13.768;2023-05-21T10:20:02;10.10;;;8.83;;
19739;SDS011;10027;51.066;13.768;2023-05-21T10:22:30;10.33;;;9.00;;
19739;SDS011;10027;51.066;13.768;2023-05-21T10:24:59;10.37;;;9.07;;
19739;SDS011;10027;51.066;13.768;2023-05-21T10:27:28;11.80;;;9.17;;
19739;SDS011;10027;51.066;13.768;2023-05-21T10:29:58;9.80;;;8.80;;
19739;SDS011;10027;51.066;13.768;2023-05-21T10:32:25;10.30;;;9.23;;
19739;SDS011;10027;51.066;13.768;2023-05-21T10:34:53;10.43;;;9.27;;
19739;SDS011;10027;51.066;13.768;2023-05-21T10:37:23;11.40;;;10.20;;
19739;SDS011;10027;51.066;13.768;2023-05-21T10:39:54;10.97;;;9.87;;
19739;SDS011;10027;51.066;13.768;2023-05-21T10:42:36;10.70;;;9.60;;
19739;SDS011;10027;51.066;13.768;2023-05-21T10:55:35;8.20;;;7.33;;
19739;SDS011;10027;51.066;13.768;2023-05-21T11:00:34;7.97;;;7.17;;
19739;SDS011;10027;51.066;13.768;2023-05-21T11:03:02;7.10;;;6.20;;
19739;SDS011;10027;51.066;13.768;2023-05-21T11:05:40;7.50;;;6.60;;
19739;SDS011;10027;51.066;13.768;2023-05-21T11:08:20;8.70;;;5.93;;
19739;SDS011;10027;51.066;13.768;2023-05-21T11:10:54;8.93;;;6.30;;
19739;SDS011;10027;51.066;13.768;2023-05-21T11:13:24;7.53;;;5.57;;
19739;SDS011;10027;51.066;13.768;2023-05-21T11:21:05;7.50;;;6.67;;
19739;SDS011;10027;51.066;13.768;2023-05-21T11:23:51;6.37;;;5.37;;
19739;SDS011;10027;51.066;13.768;2023-05-21T11:26:19;6.57;;;5.87;;
19739;SDS011;10027;51.066;13.768;2023-05-21T11:31:32;8.23;;;6.00;;
19739;SDS011;10027;51.066;13.768;2023-05-21T11:34:13;7.57;;;6.70;;
19739;SDS011;10027;51.066;13.768;2023-05-21T11:36:40;9.90;;;7.23;;
19739;SDS011;10027;51.066;13.768;2023-05-21T11:39:17;7.87;;;7.00;;
19739;SDS011;10027;51.066;13.768;2023-05-21T11:42:06;8.97;;;6.77;;
19739;SDS011;10027;51.066;13.768;2023-05-21T11:44:37;7.77;;;6.60;;
19739;SDS011;10027;51.066;13.768;2023-05-21T11:47:05;9.10;;;6.60;;
19739;SDS011;10027;51.066;13.768;2023-05-21T11:49:32;7.67;;;6.87;;
19739;SDS011;10027;51.066;13.768;2023-05-21T11:52:00;7.23;;;6.33;;
19739;SDS011;10027;51.066;13.768;2023-05-21T11:54:28;8.93;;;7.10;;
19739;SDS011;10027;51.066;13.768;2023-05-21T11:57:05;7.60;;;6.70;;
19739;SDS011;10027;51.066;13.768;2023-05-21T11:59:33;7.53;;;6.70;;
19739;SDS011;10027;51.066;13.768;2023-05-21T12:02:00;8.83;;;7.30;;
19739;SDS011;10027;51.066;13.768;2023-05-21T12:04:31;8.07;;;7.27;;
19739;SDS011;10027;51.066;13.768;2023-05-21T12:07:04;8.43;;;7.37;;
19739;SDS011;10027;51.066;13.768;2023-05-21T12:09:41;9.27;;;8.20;;
19739;SDS011;10027;51.066;13.768;2023-05-21T12:12:10;9.33;;;8.07;;
19739;SDS011;10027;51.066;13.768;2023-05-21T12:14:53;9.57;;;8.53;;
19739;SDS011;10027;51.066;13.768;2023-05-21T12:17:20;9.07;;;8.03;;
19739;SDS011;10027;51.066;13.768;2023-05-21T12:19:51;9.83;;;8.70;;
19739;SDS011;10027;51.066;13.768;2023-05-21T12:22:19;8.77;;;7.87;;
19739;SDS011;10027;51.066;13.768;2023-05-21T12:24:46;10.50;;;8.20;;
19739;SDS011;10027;51.066;13.768;2023-05-21T12:27:14;9.93;;;8.33;;
19739;SDS011;10027;51.066;13.768;2023-05-21T12:29:42;9.60;;;8.27;;
19739;SDS011;10027;51.066;13.768;2023-05-21T12:32:10;10.57;;;8.70;;
19739;SDS011;10027;51.066;13.768;2023-05-21T12:37:15;10.20;;;8.20;;
19739;SDS011;10027;51.066;13.768;2023-05-21T12:39:43;9.77;;;8.57;;
19739;SDS011;10027;51.066;13.768;2023-05-21T12:42:10;9.93;;;8.73;;
19739;SDS011;10027;51.066;13.768;2023-05-21T12:44:45;8.90;;;8.00;;
19739;SDS011;10027;51.066;13.768;2023-05-21T12:47:12;10.30;;;9.03;;
19739;SDS011;10027;51.066;13.768;2023-05-21T12:49:40;9.93;;;8.30;;
19739;SDS011;10027;51.066;13.768;2023-05-21T12:52:08;9.57;;;8.27;;
19739;SDS011;10027;51.066;13.768;2023-05-21T12:54:37;10.17;;;8.73;;
19739;SDS011;10027;51.066;13.768;2023-05-21T12:57:04;9.70;;;8.60;;
19739;SDS011;10027;51.066;13.768;2023-05-21T13:00:05;10.87;;;9.30;;
19739;SDS011;10027;51.066;13.768;2023-05-21T13:02:59;10.83;;;9.60;;
19739;SDS011;10027;51.066;13.768;2023-05-21T13:05:20;12.70;;;10.07;;
19739;SDS011;10027;51.066;13.768;2023-05-21T13:07:48;12.50;;;9.30;;
19739;SDS011;10027;51.066;13.768;2023-05-21T13:10:16;12.37;;;9.67;;
19739;SDS011;10027;51.066;13.768;2023-05-21T13:12:44;10.70;;;9.43;;
19739;SDS011;10027;51.066;13.768;2023-05-21T13:15:11;11.43;;;9.57;;
19739;SDS011;10027;51.066;13.768;2023-05-21T13:17:38;12.57;;;10.27;;
19739;SDS011;10027;51.066;13.768;2023-05-21T13:22:35;11.77;;;10.23;;
19739;SDS011;10027;51.066;13.768;2023-05-21T13:25:10;10.83;;;9.37;;
19739;SDS011;10027;51.066;13.768;2023-05-21T13:27:37;10.90;;;9.60;;
19739;SDS011;10027;51.066;13.768;2023-05-21T13:30:05;12.00;;;9.60;;
19739;SDS011;10027;51.066;13.768;2023-05-21T13:32:32;10.83;;;9.53;;
19739;SDS011;10027;51.066;13.768;2023-05-21T13:35:00;11.10;;;9.20;;
19739;SDS011;10027;51.066;13.768;2023-05-21T13:37:27;11.70;;;9.33;;
19739;SDS011;10027;51.066;13.768;2023-05-21T13:39:54;10.47;;;9.07;;
19739;SDS011;10027;51.066;13.768;2023-05-21T13:42:21;11.60;;;9.73;;
19739;SDS011;10027;51.066;13.768;2023-05-21T13:44:49;12.40;;;10.13;;
19739;SDS011;10027;51.066;13.768;2023-05-21T13:47:16;10.83;;;9.70;;
19739;SDS011;10027;51.066;13.768;2023-05-21T13:49:43;11.40;;;9.97;;
19739;SDS011;10027;51.066;13.768;2023-05-21T13:52:10;7.83;;;7.03;;
19739;SDS011;10027;51.066;13.768;2023-05-21T13:54:38;6.83;;;5.90;;
19739;SDS011;10027;51.066;13.768;2023-05-21T13:57:06;8.00;;;5.77;;
19739;SDS011;10027;51.066;13.768;2023-05-21T13:59:33;6.77;;;5.50;;
19739;SDS011;10027;51.066;13.768;2023-05-21T14:02:00;6.70;;;5.90;;
19739;SDS011;10027;51.066;13.768;2023-05-21T14:04:27;7.77;;;6.10;;
19739;SDS011;10027;51.066;13.768;2023-05-21T14:06:54;6.93;;;6.17;;
19739;SDS011;10027;51.066;13.768;2023-05-21T14:09:21;7.57;;;6.43;;
19739;SDS011;10027;51.066;13.768;2023-05-21T14:11:52;7.03;;;6.30;;
19739;SDS011;10027;51.066;13.768;2023-05-21T14:14:21;7.00;;;6.30;;
19739;SDS011;10027;51.066;13.768;2023-05-21T14:16:49;7.87;;;6.77;;
19739;SDS011;10027;51.066;13.768;2023-05-21T14:19:16;7.77;;;6.97;;
19739;SDS011;10027;51.066;13.768;2023-05-21T14:21:44;9.03;;;6.50;;
19739;SDS011;10027;51.066;13.768;2023-05-21T14:24:11;8.37;;;7.27;;
19739;SDS011;10027;51.066;13.768;2023-05-21T14:26:41;8.70;;;7.13;;
19739;SDS011;10027;51.066;13.768;2023-05-21T14:29:08;7.77;;;6.97;;
19739;SDS011;10027;51.066;13.768;2023-05-21T14:35:04;7.17;;;6.47;;
19739;SDS011;10027;51.066;13.768;2023-05-21T14:37:31;8.13;;;7.20;;
19739;SDS011;10027;51.066;13.768;2023-05-21T14:39:59;10.50;;;7.10;;
19739;SDS011;10027;51.066;13.768;2023-05-21T14:42:26;7.23;;;6.50;;
19739;SDS011;10027;51.066;13.768;2023-05-21T14:44:53;7.03;;;6.33;;
19739;SDS011;10027;51.066;13.768;2023-05-21T14:47:20;6.83;;;6.17;;
19739;SDS011;10027;51.066;13.768;2023-05-21T14:49:47;7.97;;;6.97;;
19739;SDS011;10027;51.066;13.768;2023-05-21T14:52:16;8.10;;;5.93;;
19739;SDS011;10027;51.066;13.768;2023-05-21T14:54:43;6.60;;;5.83;;
19739;SDS011;10027;51.066;13.768;2023-05-21T14:57:11;7.90;;;5.90;;